createdAt,value
2018-09-01T00:01:33.590Z,17.03
2018-09-01T00:04:02.513Z,17.01
2018-09-01T00:06:31.373Z,16.99
2018-09-01T00:09:00.358Z,16.99
2018-09-01T00:11:28.986Z,16.97
2018-09-01T00:13:57.841Z,16.96
2018-09-01T00:16:26.501Z,16.95
2018-09-01T00:18:55.197Z,16.95
2018-09-01T00:21:24.913Z,16.93
2018-09-01T00:23:53.909Z,16.92
2018-09-01T00:26:22.663Z,16.89
2018-09-01T00:28:51.606Z,16.86
2018-09-01T00:31:20.705Z,16.85
2018-09-01T00:33:49.351Z,16.85
2018-09-01T00:36:19.077Z,16.85
2018-09-01T00:38:53.016Z,16.86
2018-09-01T00:41:21.627Z,16.85
2018-09-01T00:43:51.472Z,16.83
2018-09-01T00:46:20.137Z,16.83
2018-09-01T00:48:48.808Z,16.82
2018-09-01T00:51:17.477Z,16.80
2018-09-01T00:53:46.290Z,16.81
2018-09-01T00:56:14.874Z,16.80
2018-09-01T00:58:45.628Z,16.79
2018-09-01T01:01:14.404Z,16.81
2018-09-01T01:03:44.260Z,16.82
2018-09-01T01:06:14.026Z,16.84
2018-09-01T01:08:44.049Z,16.83
2018-09-01T01:11:12.970Z,16.83
2018-09-01T01:13:42.066Z,16.83
2018-09-01T01:16:10.827Z,16.83
2018-09-01T01:18:39.618Z,16.83
2018-09-01T01:21:08.359Z,16.85
2018-09-01T01:23:37.221Z,16.86
2018-09-01T01:26:05.947Z,16.88
2018-09-01T01:28:35.746Z,16.89
2018-09-01T01:31:04.610Z,16.92
2018-09-01T01:33:34.285Z,16.94
2018-09-01T01:36:03.028Z,16.95
2018-09-01T01:38:31.698Z,16.95
2018-09-01T01:41:00.449Z,16.95
2018-09-01T01:43:29.279Z,16.95
2018-09-01T01:45:58.001Z,16.96
2018-09-01T01:48:26.665Z,16.95
2018-09-01T01:50:55.383Z,16.95
2018-09-01T01:53:24.007Z,16.95
2018-09-01T01:55:52.929Z,16.95
2018-09-01T01:58:22.289Z,16.94
2018-09-01T02:00:51.324Z,16.94
2018-09-01T02:03:20.033Z,16.96
2018-09-01T02:05:48.789Z,16.95
2018-09-01T02:08:17.513Z,16.95
2018-09-01T02:10:46.220Z,16.95
2018-09-01T02:13:14.988Z,16.95
2018-09-01T02:15:43.614Z,16.95
2018-09-01T02:18:12.402Z,16.94
2018-09-01T02:20:41.666Z,16.95
2018-09-01T02:23:10.433Z,16.93
2018-09-01T02:25:39.123Z,16.95
2018-09-01T02:28:07.897Z,16.95
2018-09-01T02:30:36.590Z,16.94
2018-09-01T02:33:05.505Z,16.94
2018-09-01T02:35:34.163Z,16.93
2018-09-01T02:38:02.799Z,16.94
2018-09-01T02:40:31.760Z,16.92
2018-09-01T02:43:00.434Z,16.92
2018-09-01T02:45:29.196Z,16.89
2018-09-01T02:47:59.864Z,16.84
2018-09-01T02:50:28.528Z,16.80
2018-09-01T02:52:57.458Z,16.78
2018-09-01T02:55:26.088Z,16.77
2018-09-01T02:57:55.769Z,16.74
2018-09-01T03:00:29.874Z,16.73
2018-09-01T03:02:58.493Z,16.68
2018-09-01T03:05:27.260Z,16.68
2018-09-01T03:07:56.050Z,16.67
2018-09-01T03:10:25.133Z,16.67
2018-09-01T03:12:53.739Z,16.66
2018-09-01T03:15:22.385Z,16.69
2018-09-01T03:17:51.055Z,16.71
2018-09-01T03:20:19.810Z,16.73
2018-09-01T03:22:48.559Z,16.77
2018-09-01T03:25:17.366Z,16.80
2018-09-01T03:27:45.977Z,16.80
2018-09-01T03:30:14.599Z,16.80
2018-09-01T03:32:43.416Z,16.79
2018-09-01T03:35:12.717Z,16.79
2018-09-01T03:37:41.443Z,16.79
2018-09-01T03:40:10.130Z,16.77
2018-09-01T03:42:38.926Z,16.74
2018-09-01T03:45:07.646Z,16.74
2018-09-01T03:47:36.409Z,16.74
2018-09-01T03:50:05.151Z,16.70
2018-09-01T03:52:33.856Z,16.70
2018-09-01T03:55:02.500Z,16.65
2018-09-01T03:57:31.165Z,16.63
2018-09-01T04:00:00.056Z,16.59
2018-09-01T04:02:28.878Z,16.58
2018-09-01T04:04:58.444Z,16.54
2018-09-01T04:07:27.277Z,16.47
2018-09-01T04:09:55.944Z,16.48
2018-09-01T04:12:24.654Z,16.46
2018-09-01T04:14:53.370Z,16.46
2018-09-01T04:17:22.038Z,16.48
2018-09-01T04:19:50.693Z,16.51
2018-09-01T04:22:19.740Z,16.52
2018-09-01T04:24:48.522Z,16.55
2018-09-01T04:27:17.198Z,16.56
2018-09-01T04:29:45.989Z,16.59
2018-09-01T04:32:14.649Z,16.62
2018-09-01T04:34:43.362Z,16.67
2018-09-01T04:37:12.287Z,16.74
2018-09-01T04:39:41.052Z,16.82
2018-09-01T04:42:10.014Z,16.89
2018-09-01T04:44:38.681Z,16.97
2018-09-01T04:47:07.630Z,17.03
2018-09-01T04:49:36.448Z,17.10
2018-09-01T04:52:05.233Z,17.16
2018-09-01T04:54:34.227Z,17.22
2018-09-01T04:57:02.889Z,17.27
2018-09-01T04:59:31.583Z,17.29
2018-09-01T05:02:00.412Z,17.31
2018-09-01T05:04:29.004Z,17.32
2018-09-01T05:06:57.606Z,17.33
2018-09-01T05:09:26.339Z,17.33
2018-09-01T05:11:54.998Z,17.32
2018-09-01T05:14:23.660Z,17.32
2018-09-01T05:16:52.387Z,17.32
2018-09-01T05:19:22.801Z,17.30
2018-09-01T05:21:51.683Z,17.30
2018-09-01T05:24:20.342Z,17.31
2018-09-01T05:26:49.003Z,17.31
2018-09-01T05:29:18.777Z,17.31
2018-09-01T05:31:47.649Z,17.33
2018-09-01T05:34:16.574Z,17.36
2018-09-01T05:36:46.274Z,17.40
2018-09-01T05:39:15.759Z,17.42
2018-09-01T05:41:44.553Z,17.44
2018-09-01T05:44:13.843Z,17.49
2018-09-01T05:46:43.811Z,17.50
2018-09-01T05:49:12.802Z,17.53
2018-09-01T05:51:42.512Z,17.52
2018-09-01T05:54:12.213Z,17.53
2018-09-01T05:56:41.702Z,17.56
2018-09-01T05:59:10.509Z,17.62
2018-09-01T06:01:39.155Z,17.71
2018-09-01T06:04:07.862Z,17.83
2018-09-01T06:06:36.576Z,17.96
2018-09-01T06:09:06.995Z,18.08
2018-09-01T06:11:35.705Z,18.25
2018-09-01T06:14:04.361Z,18.35
2018-09-01T06:16:33.190Z,18.44
2018-09-01T06:19:02.327Z,18.48
2018-09-01T06:21:31.917Z,18.49
2018-09-01T06:24:01.109Z,18.48
2018-09-01T06:26:30.959Z,18.46
2018-09-01T06:29:07.793Z,18.42
2018-09-01T06:31:36.569Z,18.42
2018-09-01T06:34:05.630Z,18.39
2018-09-01T06:36:34.466Z,18.34
2018-09-01T06:39:03.299Z,18.28
2018-09-01T06:41:31.989Z,18.24
2018-09-01T06:44:01.170Z,18.22
2018-09-01T06:46:30.670Z,18.20
2018-09-01T06:48:59.545Z,18.14
2018-09-01T06:51:29.499Z,18.11
2018-09-01T06:53:59.021Z,18.09
2018-09-01T06:56:27.861Z,18.10
2018-09-01T06:58:56.570Z,18.13
2018-09-01T07:01:25.245Z,18.17
2018-09-01T07:03:54.099Z,18.20
2018-09-01T07:06:22.946Z,18.24
2018-09-01T07:08:51.649Z,18.28
2018-09-01T07:11:20.359Z,18.36
2018-09-01T07:13:49.244Z,18.47
2018-09-01T07:16:18.511Z,18.62
2018-09-01T07:18:47.217Z,18.79
2018-09-01T07:21:15.820Z,18.97
2018-09-01T07:23:44.425Z,19.07
2018-09-01T07:26:13.190Z,19.15
2018-09-01T07:28:41.961Z,19.19
2018-09-01T07:31:10.932Z,19.19
2018-09-01T07:33:40.310Z,19.21
2018-09-01T07:36:09.024Z,19.20
2018-09-01T07:38:37.762Z,19.26
2018-09-01T07:41:06.874Z,19.38
2018-09-01T07:43:35.574Z,19.56
2018-09-01T07:46:04.193Z,19.79
2018-09-01T07:48:33.255Z,20.06
2018-09-01T07:51:02.353Z,20.39
2018-09-01T07:53:31.029Z,20.70
2018-09-01T07:55:59.781Z,20.90
2018-09-01T07:58:29.654Z,21.07
2018-09-01T08:00:58.291Z,21.27
2018-09-01T08:03:27.005Z,21.39
2018-09-01T08:05:55.926Z,21.56
2018-09-01T08:08:24.518Z,21.68
2018-09-01T08:10:53.220Z,21.75
2018-09-01T08:13:21.826Z,21.86
2018-09-01T08:15:50.600Z,22.03
2018-09-01T08:18:19.294Z,22.18
2018-09-01T08:20:47.885Z,22.31
2018-09-01T08:23:16.577Z,22.35
2018-09-01T08:25:45.362Z,22.48
2018-09-01T08:28:14.483Z,22.67
2018-09-01T08:30:44.160Z,22.78
2018-09-01T08:33:13.053Z,22.92
2018-09-01T08:35:41.638Z,23.15
2018-09-01T08:38:11.465Z,23.25
2018-09-01T08:40:40.135Z,23.26
2018-09-01T08:43:08.950Z,23.27
2018-09-01T08:45:37.554Z,23.26
2018-09-01T08:48:06.473Z,23.18
2018-09-01T08:50:37.676Z,23.09
2018-09-01T08:53:06.414Z,23.00
2018-09-01T08:55:35.254Z,22.92
2018-09-01T08:58:10.486Z,22.87
2018-09-01T09:00:39.185Z,22.87
2018-09-01T09:03:07.854Z,22.88
2018-09-01T09:05:36.556Z,22.84
2018-09-01T09:08:05.201Z,22.86
2018-09-01T09:10:33.837Z,22.88
2018-09-01T09:13:02.605Z,22.89
2018-09-01T09:15:32.411Z,22.75
2018-09-01T09:18:01.319Z,22.58
2018-09-01T09:20:30.058Z,22.43
2018-09-01T09:22:58.621Z,22.33
2018-09-01T09:25:27.293Z,22.26
2018-09-01T09:27:57.124Z,22.29
2018-09-01T09:30:26.729Z,22.35
2018-09-01T09:32:56.393Z,22.37
2018-09-01T09:35:25.169Z,22.43
2018-09-01T09:37:55.158Z,22.48
2018-09-01T09:40:23.811Z,22.56
2018-09-01T09:42:52.642Z,22.59
2018-09-01T09:45:21.670Z,22.61
2018-09-01T09:47:50.448Z,22.60
2018-09-01T09:50:19.174Z,22.54
2018-09-01T09:52:47.837Z,22.46
2018-09-01T09:55:16.619Z,22.42
2018-09-01T09:57:45.354Z,22.29
2018-09-01T10:00:15.346Z,22.14
2018-09-01T10:02:44.957Z,21.95
2018-09-01T10:05:13.805Z,21.83
2018-09-01T10:07:42.636Z,21.77
2018-09-01T10:10:11.441Z,21.70
2018-09-01T10:12:40.847Z,21.66
2018-09-01T10:15:09.437Z,21.63
2018-09-01T10:17:38.165Z,21.66
2018-09-01T10:20:06.977Z,21.72
2018-09-01T10:22:36.504Z,21.75
2018-09-01T10:25:05.310Z,21.78
2018-09-01T10:27:34.261Z,21.80
2018-09-01T10:30:03.090Z,21.82
2018-09-01T10:32:31.737Z,21.91
2018-09-01T10:35:01.129Z,22.04
2018-09-01T10:37:29.933Z,22.16
2018-09-01T10:39:58.679Z,22.29
2018-09-01T10:42:27.469Z,22.38
2018-09-01T10:44:56.157Z,22.30
2018-09-01T10:47:25.873Z,22.19
2018-09-01T10:49:54.502Z,22.11
2018-09-01T10:52:23.245Z,22.06
2018-09-01T10:54:53.204Z,22.04
2018-09-01T10:57:21.918Z,22.06
2018-09-01T10:59:50.835Z,22.07
2018-09-01T11:02:19.635Z,22.10
2018-09-01T11:04:48.325Z,22.16
2018-09-01T11:07:17.013Z,22.23
2018-09-01T11:09:46.181Z,22.27
2018-09-01T11:12:14.892Z,22.33
2018-09-01T11:14:43.605Z,22.36
2018-09-01T11:17:12.213Z,22.41
2018-09-01T11:19:40.875Z,22.42
2018-09-01T11:22:10.763Z,22.43
2018-09-01T11:24:39.486Z,22.43
2018-09-01T11:27:08.277Z,22.38
2018-09-01T11:29:37.065Z,22.33
2018-09-01T11:32:06.586Z,22.29
2018-09-01T11:34:35.355Z,22.26
2018-09-01T11:37:04.954Z,22.23
2018-09-01T11:39:33.681Z,22.19
2018-09-01T11:42:02.387Z,22.15
2018-09-01T11:44:31.168Z,22.08
2018-09-01T11:46:59.826Z,22.01
2018-09-01T11:49:29.305Z,22.00
2018-09-01T11:51:58.467Z,21.99
2018-09-01T11:54:27.829Z,22.01
2018-09-01T11:56:57.302Z,22.02
2018-09-01T11:59:28.347Z,22.02
2018-09-01T12:01:57.346Z,22.05
2018-09-01T12:04:25.938Z,22.12
2018-09-01T12:06:54.753Z,22.20
2018-09-01T12:09:24.121Z,22.26
2018-09-01T12:11:53.985Z,22.33
2018-09-01T12:14:22.944Z,22.34
2018-09-01T12:16:51.742Z,22.36
2018-09-01T12:19:20.603Z,22.39
2018-09-01T12:21:49.364Z,22.42
2018-09-01T12:24:18.077Z,22.48
2018-09-01T12:26:46.886Z,22.56
2018-09-01T12:29:16.290Z,22.62
2018-09-01T12:31:44.887Z,22.65
2018-09-01T12:34:14.255Z,22.75
2018-09-01T12:36:43.280Z,22.86
2018-09-01T12:39:12.006Z,23.03
2018-09-01T12:41:40.857Z,23.26
2018-09-01T12:44:09.573Z,23.51
2018-09-01T12:46:38.333Z,23.74
2018-09-01T12:49:07.172Z,23.85
2018-09-01T12:51:35.862Z,23.86
2018-09-01T12:54:05.524Z,23.84
2018-09-01T12:56:34.353Z,23.91
2018-09-01T12:59:03.567Z,23.92
2018-09-01T13:01:32.421Z,23.95
2018-09-01T13:04:01.731Z,23.97
2018-09-01T13:06:30.602Z,23.88
2018-09-01T13:08:59.565Z,23.91
2018-09-01T13:11:28.282Z,23.94
2018-09-01T13:13:57.218Z,24.09
2018-09-01T13:16:26.996Z,24.11
2018-09-01T13:18:57.355Z,24.13
2018-09-01T13:21:26.096Z,24.19
2018-09-01T13:23:55.013Z,24.24
2018-09-01T13:26:23.652Z,24.24
2018-09-01T13:28:52.340Z,24.25
2018-09-01T13:31:21.030Z,24.10
2018-09-01T13:33:50.281Z,23.91
2018-09-01T13:36:19.110Z,23.81
2018-09-01T13:38:48.782Z,23.80
2018-09-01T13:41:17.838Z,23.82
2018-09-01T13:43:46.429Z,23.86
2018-09-01T13:46:16.331Z,23.86
2018-09-01T13:48:45.014Z,23.81
2018-09-01T13:51:13.638Z,23.67
2018-09-01T13:53:42.214Z,23.57
2018-09-01T13:56:10.846Z,23.45
2018-09-01T13:58:39.691Z,23.28
2018-09-01T14:01:08.465Z,23.16
2018-09-01T14:03:37.105Z,23.06
2018-09-01T14:06:05.886Z,22.92
2018-09-01T14:08:34.633Z,22.84
2018-09-01T14:11:03.413Z,22.78
2018-09-01T14:13:33.141Z,22.69
2018-09-01T14:16:01.831Z,22.58
2018-09-01T14:18:30.534Z,22.52
2018-09-01T14:20:59.395Z,22.49
2018-09-01T14:23:28.146Z,22.48
2018-09-01T14:25:56.811Z,22.49
2018-09-01T14:28:25.645Z,22.50
2018-09-01T14:30:54.495Z,22.50
2018-09-01T14:33:24.536Z,22.50
2018-09-01T14:35:53.238Z,22.52
2018-09-01T14:38:21.899Z,22.53
2018-09-01T14:40:50.568Z,22.52
2018-09-01T14:43:20.414Z,22.49
2018-09-01T14:45:50.140Z,22.42
2018-09-01T14:48:20.005Z,22.39
2018-09-01T14:50:48.752Z,22.34
2018-09-01T14:53:17.544Z,22.32
2018-09-01T14:55:46.327Z,22.29
2018-09-01T14:58:15.151Z,22.28
2018-09-01T15:00:44.235Z,22.26
2018-09-01T15:03:13.110Z,22.25
2018-09-01T15:05:41.858Z,22.23
2018-09-01T15:08:10.518Z,22.19
2018-09-01T15:10:39.427Z,22.16
2018-09-01T15:13:08.277Z,22.11
2018-09-01T15:15:40.968Z,22.05
2018-09-01T15:18:09.741Z,21.99
2018-09-01T15:20:38.416Z,21.95
2018-09-01T15:23:07.085Z,21.94
2018-09-01T15:25:35.708Z,21.91
2018-09-01T15:28:04.465Z,21.88
2018-09-01T15:30:33.175Z,21.89
2018-09-01T15:33:01.813Z,21.88
2018-09-01T15:35:30.734Z,21.87
2018-09-01T15:38:00.076Z,21.87
2018-09-01T15:40:29.685Z,21.85
2018-09-01T15:42:58.558Z,21.80
2018-09-01T15:45:28.678Z,21.74
2018-09-01T15:47:57.870Z,21.71
2018-09-01T15:50:26.709Z,21.70
2018-09-01T15:56:50.961Z,21.67
2018-09-01T15:59:53.740Z,21.62
2018-09-01T16:02:22.749Z,21.56
2018-09-01T16:04:53.433Z,21.51
2018-09-01T16:07:22.180Z,21.43
2018-09-01T16:09:51.128Z,21.39
2018-09-01T16:12:20.073Z,21.30
2018-09-01T16:14:48.728Z,21.24
2018-09-01T16:17:17.546Z,21.18
2018-09-01T16:19:46.555Z,21.13
2018-09-01T16:22:15.224Z,21.04
2018-09-01T16:24:44.016Z,20.93
2018-09-01T16:27:12.633Z,20.81
2018-09-01T16:29:41.382Z,20.72
2018-09-01T16:38:11.930Z,19.81
2018-09-01T16:40:40.634Z,19.51
2018-09-01T16:43:09.557Z,19.17
2018-09-01T16:45:38.441Z,18.92
2018-09-01T16:48:06.657Z,18.74
2018-09-01T16:50:35.423Z,18.59
2018-09-01T16:53:04.332Z,18.47
2018-09-01T16:55:33.421Z,18.38
2018-09-01T16:58:03.740Z,18.25
2018-09-01T17:00:33.067Z,18.13
2018-09-01T17:03:01.752Z,18.04
2018-09-01T17:05:30.558Z,17.97
2018-09-01T17:07:59.536Z,17.92
2018-09-01T17:10:30.249Z,17.90
2018-09-01T17:12:59.479Z,17.86
2018-09-01T17:15:28.333Z,17.83
2018-09-01T17:17:57.742Z,17.81
2018-09-01T17:20:26.490Z,17.79
2018-09-01T17:22:55.182Z,17.76
2018-09-01T17:25:24.444Z,17.73
2018-09-01T17:27:54.381Z,17.71
2018-09-01T17:30:23.498Z,17.71
2018-09-01T17:32:53.170Z,17.69
2018-09-01T17:35:23.016Z,17.67
2018-09-01T17:37:52.280Z,17.67
2018-09-01T17:40:21.001Z,17.64
2018-09-01T17:42:49.805Z,17.64
2018-09-01T17:45:18.534Z,17.62
2018-09-01T17:47:48.225Z,17.63
2018-09-01T17:50:16.889Z,17.61
2018-09-01T17:52:45.573Z,17.60
2018-09-01T17:55:14.475Z,17.57
2018-09-01T17:57:43.203Z,17.56
2018-09-01T18:00:11.893Z,17.56
2018-09-01T18:02:40.838Z,17.55
2018-09-01T18:05:09.711Z,17.52
2018-09-01T18:07:39.574Z,17.49
2018-09-01T18:10:08.484Z,17.49
2018-09-01T18:12:37.159Z,17.50
2018-09-01T18:15:06.148Z,17.50
2018-09-01T18:17:34.985Z,17.49
2018-09-01T18:20:03.678Z,17.49
2018-09-01T18:22:32.478Z,17.49
2018-09-01T18:25:01.191Z,17.49
2018-09-01T18:27:29.866Z,17.47
2018-09-01T18:29:58.613Z,17.47
2018-09-01T18:32:27.290Z,17.46
2018-09-01T18:34:55.997Z,17.44
2018-09-01T18:37:25.798Z,17.44
2018-09-01T18:39:54.484Z,17.42
2018-09-01T18:42:23.245Z,17.41
2018-09-01T18:44:52.145Z,17.38
2018-09-01T18:47:20.883Z,17.34
2018-09-01T18:49:49.569Z,17.30
2018-09-01T18:52:18.453Z,17.26
2018-09-01T18:54:47.341Z,17.25
2018-09-01T18:57:16.214Z,17.22
2018-09-01T18:59:44.897Z,17.21
2018-09-01T19:02:13.911Z,17.19
2018-09-01T19:04:42.692Z,17.19
2018-09-01T19:07:11.368Z,17.17
2018-09-01T19:09:40.640Z,17.17
2018-09-01T19:12:09.611Z,17.16
2018-09-01T19:14:38.264Z,17.11
2018-09-01T19:17:08.069Z,17.06
2018-09-01T19:19:37.711Z,17.02
2018-09-01T19:22:06.378Z,16.98
2018-09-01T19:24:35.083Z,16.93
2018-09-01T19:27:04.354Z,16.91
2018-09-01T19:29:33.164Z,16.89
2018-09-01T19:32:01.917Z,16.87
2018-09-01T19:34:30.754Z,16.88
2018-09-01T19:36:59.462Z,16.88
2018-09-01T19:39:28.144Z,16.86
2018-09-01T19:41:56.868Z,16.87
2018-09-01T19:44:25.571Z,16.84
2018-09-01T19:46:54.381Z,16.84
2018-09-01T19:49:23.195Z,16.84
2018-09-01T19:51:52.558Z,16.85
2018-09-01T19:54:22.060Z,16.84
2018-09-01T19:56:50.817Z,16.82
2018-09-01T19:59:19.930Z,16.81
2018-09-01T20:01:50.021Z,16.80
2018-09-01T20:04:19.680Z,16.78
2018-09-01T20:06:49.509Z,16.77
2018-09-01T20:09:20.025Z,16.75
2018-09-01T20:11:49.881Z,16.73
2018-09-01T20:14:18.773Z,16.69
2018-09-01T20:16:49.646Z,16.67
2018-09-01T20:19:19.180Z,16.63
2018-09-01T20:21:49.517Z,16.60
2018-09-01T20:24:20.616Z,16.55
2018-09-01T20:26:49.337Z,16.51
2018-09-01T20:29:18.042Z,16.47
2018-09-01T20:31:46.903Z,16.43
2018-09-01T20:34:25.587Z,16.37
2018-09-01T20:36:54.546Z,16.33
2018-09-01T20:39:24.457Z,16.30
2018-09-01T20:41:53.313Z,16.28
2018-09-01T20:44:22.037Z,16.26
2018-09-01T20:46:50.634Z,16.23
2018-09-01T20:49:19.521Z,16.20
2018-09-01T21:11:55.519Z,15.76
2018-09-01T21:21:50.235Z,15.68
2018-09-01T21:24:18.986Z,15.68
2018-09-01T21:36:51.070Z,15.64
2018-09-01T22:02:46.651Z,15.59
2018-09-01T22:05:15.523Z,15.62
2018-09-01T22:07:44.624Z,15.63
2018-09-01T22:10:13.209Z,15.66
2018-09-01T22:12:41.889Z,15.68
2018-09-01T22:15:10.570Z,15.66
2018-09-01T22:17:39.384Z,15.65
2018-09-01T22:20:08.165Z,15.67
2018-09-01T22:22:36.789Z,15.64
2018-09-01T22:25:05.610Z,15.59
2018-09-01T22:27:34.322Z,15.59
2018-09-01T22:30:03.165Z,15.57
2018-09-01T22:32:32.035Z,15.54
2018-09-01T22:35:00.769Z,15.52
2018-09-01T22:37:29.485Z,15.48
2018-09-01T22:39:58.245Z,15.45
2018-09-01T22:42:27.030Z,15.41
2018-09-01T22:44:57.353Z,15.39
2018-09-01T22:47:28.405Z,15.40
2018-09-01T22:49:57.149Z,15.40
2018-09-01T22:52:26.393Z,15.36
2018-09-01T22:54:55.171Z,15.35
2018-09-01T22:57:23.852Z,15.33
2018-09-01T22:59:52.517Z,15.32
2018-09-01T23:02:21.129Z,15.30
2018-09-01T23:04:49.893Z,15.29
2018-09-01T23:07:18.510Z,15.29
2018-09-01T23:09:47.116Z,15.29
2018-09-01T23:12:15.773Z,15.27
2018-09-01T23:14:44.550Z,15.27
2018-09-01T23:17:14.093Z,15.26
2018-09-01T23:19:43.861Z,15.26
2018-09-01T23:22:12.617Z,15.25
2018-09-01T23:24:41.220Z,15.24
2018-09-01T23:27:09.909Z,15.27
2018-09-01T23:29:38.558Z,15.27
2018-09-01T23:32:07.296Z,15.28
2018-09-01T23:34:36.092Z,15.28
2018-09-01T23:37:04.816Z,15.28
2018-09-01T23:39:33.443Z,15.29
2018-09-01T23:42:02.197Z,15.30
2018-09-01T23:44:30.838Z,15.30
2018-09-01T23:46:59.730Z,15.29
2018-09-01T23:49:28.603Z,15.29
2018-09-01T23:51:57.369Z,15.29
2018-09-01T23:54:26.275Z,15.30
2018-09-01T23:56:55.005Z,15.28
2018-09-01T23:59:23.749Z,15.30
